Skip Navigation LinksHome page > Weather > Current weather Skip Navigation Links

Current Weather

Ndjamena, Chad

For information only: do not use for flight planning or navigation.
Latest weather
Observation time Saturday, April 25, 2015 3:00 PM WAT
Local time Saturday, April 25, 2015 3:24 PM WAT
Flight conditions Instrument Meteorological Conditions
Winds
Wind direction Northeast (50°)
Winds variable from 10° to 80°
Wind speed 18 mph
Visibility 1.9 mi.
Present weather BLDU
Sky condition
Ceiling unlimited
Temperature 106°F
Dewpoint 46°F
Altimeter 29.77 in.Hg
Derived measurements
Relative humidity 14%
Heat index 106°F
Density altitude 3542 ft.
Remarks
No significant changes expected in the next two hours.
METAR FTTJ 251400Z 05016KT 010V080 3000 BLDU NSC 41/08 Q1008 NOSIG

Settings

Location code

InnerDrive.Weather 4.0.5567.0 Release CLR 4.0.30319.34014
Copyright ©2015 Inner Drive Technology. All rights reserved. Portions Copyright ©1986-2015 David Braverman.

Find weather

Site navigation


Skip Navigation Links

Place info

Page info

PayPal - The safer, easier way to pay online!

Return home.

Copyright ©2015 Inner Drive Technology. Purveyors of fine, hand-crafted computer software. Page printed 2015-04-25T14:24:32 UTC.